• Join FlightAware (Why Join?)
  • Login
  • US Flag 
09:09AM EST


 

Airport Tracker/Info


-or-


 

Live Flight TrackerFlight Track Log ✈ N1944E ✈ 17-Jan-2014 ✈ KBIL - KSDY

Flight Track Log - Related Links

Times and Time Zones

All times are in EST time to prevent confusion due to time zone crossing. See the N1944E flight status page for this flight to view local times or setup timezone preferences in your user account.

Time Position Orientation Groundspeed Altitude Reporting Facility
EST Latitude Longitude Course Direction KTS MPH feet Rate Location/Type
08:16AM 46.1042 -107.9031 57° Northeast 183 211 13,000  Level Salt Lake Center
08:28AM 46.4369 -107.1658 57° Northeast 186 214 13,000 -60 Level Salt Lake Center
08:29AM 46.3917 -107.2633 56° Northeast  Level FlightAware Approximate
08:29AM 46.4644 -107.1042 57° Northeast 185 213 12,900  Level Salt Lake Center
08:30AM 46.4153 -107.2128 56° Northeast  Level FlightAware Approximate
08:30AM 46.4914 -107.0436 57° Northeast 182 209 12,900  Level Salt Lake Center
08:31AM 46.4388 -107.1623 56° Northeast  Level FlightAware Approximate
08:31AM 46.5189 -106.9878 54° Northeast 177 204 12,900  Level Salt Lake Center
08:32AM 46.4624 -107.1117 56° Northeast  Level FlightAware Approximate
08:32AM 46.5456 -106.9267 58° Northeast 179 206 12,900  Level Salt Lake Center
08:33AM 46.4858 -107.0611 57° Northeast  Level FlightAware Approximate
08:33AM 46.5731 -106.8664 56° Northeast 179 206 12,900  Level Salt Lake Center
08:34AM 46.5983 -106.8069 58° Northeast 176 203 12,900  Level Salt Lake Center
08:35AM 46.6256 -106.7467 57° Northeast 177 204 12,900  Level Salt Lake Center
08:36AM 46.6531 -106.6869 56° Northeast 176 203 12,900  Level Salt Lake Center
08:37AM 46.6789 -106.6258 58° Northeast 176 203 12,900  Level Salt Lake Center
08:38AM 46.7031 -106.5647 60° Northeast 176 203 12,900  Level Salt Lake Center
08:39AM 46.7289 -106.5033 58° Northeast 177 204 12,900  Level Salt Lake Center
08:40AM 46.7553 -106.4428 58° Northeast 177 204 12,900  Level Salt Lake Center
08:41AM 46.7822 -106.3833 56° Northeast 176 203 12,900  Level Salt Lake Center
08:42AM 46.8086 -106.3228 57° Northeast 177 204 12,900  Level Salt Lake Center
08:43AM 46.8350 -106.2628 57° Northeast 176 203 12,900  Level Salt Lake Center
08:44AM 46.8608 -106.2028 58° Northeast 176 203 12,900  Level Salt Lake Center
08:45AM 46.8858 -106.1419 59° Northeast 175 201 12,900  Level Salt Lake Center
08:46AM 46.9117 -106.0811 58° Northeast 176 203 12,900  Level Salt Lake Center
08:47AM 46.9392 -106.0225 55° Northeast 176 203 12,900  Level Salt Lake Center
08:48AM 46.9711 -105.9506 57° Northeast 176 203 12,900  Level Salt Lake Center
08:49AM 46.9961 -105.8903 59° Northeast 175 201 12,900  Level Salt Lake Center
08:50AM 47.0206 -105.8292 60° Northeast 174 200 12,900  Level Salt Lake Center
08:51AM 47.0456 -105.7675 59° Northeast 175 201 12,900  Level Salt Lake Center
08:52AM 47.0728 -105.7086 56° Northeast 175 201 12,900  Level Salt Lake Center
08:53AM 47.0986 -105.6492 57° Northeast 174 200 12,900  Level Salt Lake Center
08:54AM 47.1250 -105.5892 57° Northeast 175 201 12,900  Level Salt Lake Center
08:55AM 47.1508 -105.5264 59° Northeast 177 204 12,900  Level Salt Lake Center
08:56AM 47.1764 -105.4647 59° Northeast 178 205 12,900  Level Salt Lake Center
08:57AM 47.2028 -105.4050 57° Northeast 177 204 12,900  Level Salt Lake Center
08:58AM 47.2283 -105.3450 58° Northeast 175 201 12,900  Level Salt Lake Center
08:59AM 47.2544 -105.2850 57° Northeast 174 200 12,900  Level Salt Lake Center
09:00AM 47.2808 -105.2233 58° Northeast 176 203 12,900  Level Salt Lake Center
09:01AM 47.3067 -105.1619 58° Northeast 177 204 12,900 -300 Level Salt Lake Center
09:02AM 47.3331 -105.0961 59° Northeast 181 208 12,300 -660 Descending Salt Lake Center
09:03AM 47.3622 -105.0242 59° Northeast 191 220 11,600 -780 Descending Salt Lake Center
09:04AM 47.3922 -104.9528 58° Northeast 199 229 10,800 -840 Descending Salt Lake Center
09:05AM 47.4225 -104.8794 59° Northeast 205 236 10,000 -840 Descending Salt Lake Center
09:06AM 47.4525 -104.8058 59° Northeast 208 239 9,200 -840 Descending Salt Lake Center
09:07AM 47.4836 -104.7358 57° Northeast 207 238 8,400 -780 Descending Salt Lake Center
09:08AM 47.5136 -104.6628 59° Northeast 207 238 7,700 -720 Descending Salt Lake Center
09:09AM 47.5436 -104.5928 58° Northeast 205 236 7,000 -720 Descending Salt Lake Center